Southington, CT (06489)

6:42 PM EST on January 29, 2015 (GMT -0500)
Hart St | Change Station
CLOSE
Current Station
Personal Weather Station
Location: Southington, CT
Elevation: 256 ft
Nearby Weather Stations

Elev 256 ft 41.61 °N, 72.88 °W | Updated 2 seconds ago

Partly Cloudy
Partly Cloudy
28.9 °F
Feels Like 29 °F
N
0.0
Wind Variable Wind from WNW
Gusts 0.0 mph

Today
High -- | Low -- °F
--% Chance of Precip.
Yesterday
High -- | Low -- °F
Precip. -- in
7:06 AM 5:03 PM
Waxing Gibbous, 78% visible
Pressure 30.16 in
Visibility 10.0 miles
Clouds Overcast 12000 ft
Windchill 29 °F
Dew Point 15 °F
Humidity 55%
Rainfall 0.00 in
Snow Depth Not available.
UV 0.0 out of 12
Pollen .10 out of 12
Air Quality Not available.
Flu Activity Not available.
METAR KMMK 292253Z AUTO 18005KT 10SM OVC120 M02/M07 A3015 RMK AO2 SLP213 T10171072 TSNO

More Conditions Fewer Conditions

Pressure 30.16 in
Visibility 10.0 miles
Clouds Overcast 12000 ft
Windchill 29 °F
Dew Point 15 °F
Humidity 55%
Rainfall 0.00 in
Snow Depth Not available.
UV 0.0 out of 12
Pollen .10 out of 12
Air Quality Not available.
Flu Activity Not available.
METAR KMMK 292253Z AUTO 18005KT 10SM OVC120 M02/M07 A3015 RMK AO2 SLP213 T10171072 TSNO

More Conditions Fewer Conditions

10-Day Weather Forecast

Almanac

Astronomy

Jan. 29, 2015 Rise Set
Actual Time
Civil Twilight
Nautical Twilight
Astronomical Twilight
Moon
Length of Visible Light
Length of Day
Tomorrow will be .
, % of the Moon is Illuminated

Today's Extremes

State Highs State Lows

Community

WunderPhotos

Upload Photos

1,791,643 photos uploaded!

WunderBlogs® & News

Nearby

Air Quality

  Air Quality AQ Index Pollutant
Not available.

Snow Depth

Station Depth Elevation

Earthquake Activity

City Distance Mag. Time & Date
Minimum magnitude displayed is 2.5.

Coastal Water Temperatures

Place Temperature

Nearby Weather Stations